sensor_id;sensor_type;location;lat;lon;timestamp;pressure;altitude;pressure_sealevel;temperature;humidity
37634;BME280;32048;49.902;22.508;2023-04-15T00:01:05;97698.88;;;9.73;100.00
37634;BME280;32048;49.902;22.508;2023-04-15T00:03:32;97705.84;;;9.74;100.00
37634;BME280;32048;49.902;22.508;2023-04-15T00:06:01;97713.13;;;9.71;100.00
37634;BME280;32048;49.902;22.508;2023-04-15T00:08:28;97722.91;;;9.69;100.00
37634;BME280;32048;49.902;22.508;2023-04-15T00:10:56;97717.06;;;9.64;100.00
37634;BME280;32048;49.902;22.508;2023-04-15T00:13:25;97716.53;;;9.58;100.00
37634;BME280;32048;49.902;22.508;2023-04-15T00:15:52;97706.94;;;9.57;100.00
37634;BME280;32048;49.902;22.508;2023-04-15T00:18:19;97707.78;;;9.58;100.00
37634;BME280;32048;49.902;22.508;2023-04-15T00:20:46;97717.50;;;9.57;100.00
37634;BME280;32048;49.902;22.508;2023-04-15T00:23:13;97710.59;;;9.55;100.00
37634;BME280;32048;49.902;22.508;2023-04-15T00:25:40;97712.41;;;9.54;100.00
37634;BME280;32048;49.902;22.508;2023-04-15T00:28:07;97700.94;;;9.55;100.00
37634;BME280;32048;49.902;22.508;2023-04-15T00:30:35;97705.31;;;9.55;100.00
37634;BME280;32048;49.902;22.508;2023-04-15T00:33:02;97699.03;;;9.57;100.00
37634;BME280;32048;49.902;22.508;2023-04-15T00:35:29;97692.91;;;9.57;100.00
37634;BME280;32048;49.902;22.508;2023-04-15T00:37:59;97701.69;;;9.57;100.00
37634;BME280;32048;49.902;22.508;2023-04-15T00:40:26;97712.97;;;9.60;100.00
37634;BME280;32048;49.902;22.508;2023-04-15T00:42:53;97717.19;;;9.62;100.00
37634;BME280;32048;49.902;22.508;2023-04-15T00:45:21;97728.47;;;9.64;100.00
37634;BME280;32048;49.902;22.508;2023-04-15T00:47:48;97731.00;;;9.66;100.00
37634;BME280;32048;49.902;22.508;2023-04-15T00:50:17;97724.06;;;9.65;100.00
37634;BME280;32048;49.902;22.508;2023-04-15T00:52:44;97713.59;;;9.63;100.00
37634;BME280;32048;49.902;22.508;2023-04-15T00:55:11;97707.41;;;9.64;100.00
37634;BME280;32048;49.902;22.508;2023-04-15T00:57:39;97711.78;;;9.64;100.00
37634;BME280;32048;49.902;22.508;2023-04-15T01:00:07;97717.06;;;9.64;100.00
37634;BME280;32048;49.902;22.508;2023-04-15T01:02:34;97728.47;;;9.64;100.00
37634;BME280;32048;49.902;22.508;2023-04-15T01:05:03;97717.94;;;9.64;100.00
37634;BME280;32048;49.902;22.508;2023-04-15T01:07:30;97714.44;;;9.64;100.00
37634;BME280;32048;49.902;22.508;2023-04-15T01:09:58;97708.31;;;9.63;100.00
37634;BME280;32048;49.902;22.508;2023-04-15T01:12:25;97723.38;;;9.61;100.00
37634;BME280;32048;49.902;22.508;2023-04-15T01:14:54;97718.31;;;9.58;100.00
37634;BME280;32048;49.902;22.508;2023-04-15T01:17:23;97715.03;;;9.54;100.00
37634;BME280;32048;49.902;22.508;2023-04-15T01:19:51;97718.72;;;9.52;100.00
37634;BME280;32048;49.902;22.508;2023-04-15T01:22:18;97725.03;;;9.49;100.00
37634;BME280;32048;49.902;22.508;2023-04-15T01:24:54;97719.09;;;9.46;100.00
37634;BME280;32048;49.902;22.508;2023-04-15T01:27:22;97714.88;;;9.43;100.00
37634;BME280;32048;49.902;22.508;2023-04-15T01:29:50;97714.13;;;9.41;100.00
37634;BME280;32048;49.902;22.508;2023-04-15T01:32:18;97709.34;;;9.33;100.00
37634;BME280;32048;49.902;22.508;2023-04-15T01:34:45;97712.28;;;9.29;100.00
37634;BME280;32048;49.902;22.508;2023-04-15T01:37:12;97711.44;;;9.28;100.00
37634;BME280;32048;49.902;22.508;2023-04-15T01:39:39;97716.81;;;9.27;100.00
37634;BME280;32048;49.902;22.508;2023-04-15T01:42:06;97720.28;;;9.27;100.00
37634;BME280;32048;49.902;22.508;2023-04-15T01:44:34;97725.75;;;9.24;100.00
37634;BME280;32048;49.902;22.508;2023-04-15T01:47:01;97726.59;;;9.25;100.00
37634;BME280;32048;49.902;22.508;2023-04-15T01:49:28;97726.69;;;9.23;100.00
37634;BME280;32048;49.902;22.508;2023-04-15T01:51:55;97725.94;;;9.21;100.00
37634;BME280;32048;49.902;22.508;2023-04-15T01:54:22;97730.44;;;9.19;100.00
37634;BME280;32048;49.902;22.508;2023-04-15T01:56:49;97724.63;;;9.14;100.00
37634;BME280;32048;49.902;22.508;2023-04-15T01:59:16;97723.03;;;9.11;100.00
37634;BME280;32048;49.902;22.508;2023-04-15T02:01:43;97723.41;;;9.05;100.00
37634;BME280;32048;49.902;22.508;2023-04-15T02:04:14;97719.28;;;9.01;100.00
37634;BME280;32048;49.902;22.508;2023-04-15T02:06:43;97722.94;;;8.99;100.00
37634;BME280;32048;49.902;22.508;2023-04-15T02:09:10;97715.16;;;8.97;100.00
37634;BME280;32048;49.902;22.508;2023-04-15T02:11:37;97713.38;;;8.98;100.00
37634;BME280;32048;49.902;22.508;2023-04-15T02:14:05;97715.91;;;8.99;100.00
37634;BME280;32048;49.902;22.508;2023-04-15T02:16:32;97724.75;;;8.98;100.00
37634;BME280;32048;49.902;22.508;2023-04-15T02:18:59;97724.06;;;8.94;100.00
37634;BME280;32048;49.902;22.508;2023-04-15T02:21:27;97720.81;;;8.91;100.00
37634;BME280;32048;49.902;22.508;2023-04-15T02:23:54;97716.56;;;8.88;100.00
37634;BME280;32048;49.902;22.508;2023-04-15T02:26:21;97714.03;;;8.87;100.00
37634;BME280;32048;49.902;22.508;2023-04-15T02:28:49;97713.94;;;8.88;100.00
37634;BME280;32048;49.902;22.508;2023-04-15T02:31:16;97711.31;;;8.88;100.00
37634;BME280;32048;49.902;22.508;2023-04-15T02:33:44;97705.94;;;8.90;100.00
37634;BME280;32048;49.902;22.508;2023-04-15T02:36:11;97708.47;;;8.91;100.00
37634;BME280;32048;49.902;22.508;2023-04-15T02:38:38;97710.19;;;8.92;100.00
37634;BME280;32048;49.902;22.508;2023-04-15T02:41:09;97723.34;;;8.92;100.00
37634;BME280;32048;49.902;22.508;2023-04-15T02:43:36;97720.72;;;8.92;100.00
37634;BME280;32048;49.902;22.508;2023-04-15T02:46:05;97724.66;;;8.85;100.00
37634;BME280;32048;49.902;22.508;2023-04-15T02:48:32;97717.91;;;8.81;100.00
37634;BME280;32048;49.902;22.508;2023-04-15T02:51:29;97725.22;;;8.76;100.00
37634;BME280;32048;49.902;22.508;2023-04-15T02:53:56;97726.91;;;8.77;100.00
37634;BME280;32048;49.902;22.508;2023-04-15T02:56:24;97735.84;;;8.74;100.00
37634;BME280;32048;49.902;22.508;2023-04-15T02:58:51;97734.16;;;8.73;100.00
37634;BME280;32048;49.902;22.508;2023-04-15T03:01:21;97738.66;;;8.71;100.00
37634;BME280;32048;49.902;22.508;2023-04-15T03:03:48;97739.59;;;8.70;100.00
37634;BME280;32048;49.902;22.508;2023-04-15T03:06:16;97738.84;;;8.68;100.00
37634;BME280;32048;49.902;22.508;2023-04-15T03:08:43;97734.63;;;8.66;100.00
37634;BME280;32048;49.902;22.508;2023-04-15T03:11:10;97746.06;;;8.65;100.00
37634;BME280;32048;49.902;22.508;2023-04-15T03:16:26;97749.75;;;8.62;100.00
37634;BME280;32048;49.902;22.508;2023-04-15T03:18:53;97743.72;;;8.60;100.00
37634;BME280;32048;49.902;22.508;2023-04-15T03:21:20;97748.34;;;8.57;100.00
37634;BME280;32048;49.902;22.508;2023-04-15T03:23:47;97748.63;;;8.52;100.00
37634;BME280;32048;49.902;22.508;2023-04-15T03:26:30;97740.13;;;8.47;100.00
37634;BME280;32048;49.902;22.508;2023-04-15T03:28:57;97737.50;;;8.47;100.00
37634;BME280;32048;49.902;22.508;2023-04-15T03:31:25;97746.50;;;8.43;100.00
37634;BME280;32048;49.902;22.508;2023-04-15T03:33:52;97751.00;;;8.41;100.00
37634;BME280;32048;49.902;22.508;2023-04-15T03:36:19;97752.81;;;8.40;100.00
37634;BME280;32048;49.902;22.508;2023-04-15T03:38:46;97757.28;;;8.38;100.00
37634;BME280;32048;49.902;22.508;2023-04-15T03:41:14;97770.28;;;8.41;100.00
37634;BME280;32048;49.902;22.508;2023-04-15T03:43:42;97770.03;;;8.46;100.00
37634;BME280;32048;49.902;22.508;2023-04-15T03:46:08;97776.19;;;8.45;100.00
37634;BME280;32048;49.902;22.508;2023-04-15T03:48:36;97773.69;;;8.43;100.00
37634;BME280;32048;49.902;22.508;2023-04-15T03:51:03;97765.78;;;8.43;100.00
37634;BME280;32048;49.902;22.508;2023-04-15T03:53:30;97763.31;;;8.40;100.00
37634;BME280;32048;49.902;22.508;2023-04-15T03:55:57;97766.19;;;8.36;100.00
37634;BME280;32048;49.902;22.508;2023-04-15T03:58:24;97774.28;;;8.32;100.00
37634;BME280;32048;49.902;22.508;2023-04-15T04:00:51;97784.88;;;8.31;100.00
37634;BME280;32048;49.902;22.508;2023-04-15T04:03:18;97783.19;;;8.30;100.00
37634;BME280;32048;49.902;22.508;2023-04-15T04:05:45;97785.22;;;8.25;100.00
37634;BME280;32048;49.902;22.508;2023-04-15T04:08:13;97786.25;;;8.22;100.00
37634;BME280;32048;49.902;22.508;2023-04-15T04:10:41;97773.38;;;8.18;100.00
37634;BME280;32048;49.902;22.508;2023-04-15T04:13:08;97771.84;;;8.13;100.00
37634;BME280;32048;49.902;22.508;2023-04-15T04:15:35;97759.72;;;8.11;100.00
37634;BME280;32048;49.902;22.508;2023-04-15T04:18:03;97780.69;;;8.12;100.00
37634;BME280;32048;49.902;22.508;2023-04-15T04:20:30;97787.63;;;8.13;100.00
37634;BME280;32048;49.902;22.508;2023-04-15T04:22:59;97799.03;;;8.14;100.00
37634;BME280;32048;49.902;22.508;2023-04-15T04:25:26;97786.63;;;8.16;100.00
37634;BME280;32048;49.902;22.508;2023-04-15T04:27:54;97789.06;;;8.19;100.00
37634;BME280;32048;49.902;22.508;2023-04-15T04:30:20;97788.03;;;8.22;100.00
37634;BME280;32048;49.902;22.508;2023-04-15T04:32:48;97780.06;;;8.23;100.00
37634;BME280;32048;49.902;22.508;2023-04-15T04:35:16;97784.38;;;8.24;100.00
37634;BME280;32048;49.902;22.508;2023-04-15T04:37:43;97790.41;;;8.26;100.00
37634;BME280;32048;49.902;22.508;2023-04-15T04:40:10;97779.06;;;8.26;100.00
37634;BME280;32048;49.902;22.508;2023-04-15T04:42:38;97782.59;;;8.25;100.00
37634;BME280;32048;49.902;22.508;2023-04-15T04:45:06;97796.63;;;8.25;100.00
37634;BME280;32048;49.902;22.508;2023-04-15T04:47:33;97814.09;;;8.26;100.00
37634;BME280;32048;49.902;22.508;2023-04-15T04:50:00;97812.13;;;8.30;100.00
37634;BME280;32048;49.902;22.508;2023-04-15T04:52:27;97806.00;;;8.29;100.00
37634;BME280;32048;49.902;22.508;2023-04-15T04:54:54;97809.31;;;8.33;100.00
37634;BME280;32048;49.902;22.508;2023-04-15T04:57:22;97818.91;;;8.34;100.00
37634;BME280;32048;49.902;22.508;2023-04-15T04:59:49;97815.34;;;8.35;100.00
37634;BME280;32048;49.902;22.508;2023-04-15T05:02:16;97814.75;;;8.30;100.00
37634;BME280;32048;49.902;22.508;2023-04-15T05:04:43;97818.16;;;8.32;100.00
37634;BME280;32048;49.902;22.508;2023-04-15T05:07:10;97817.97;;;8.35;100.00
37634;BME280;32048;49.902;22.508;2023-04-15T05:09:37;97821.53;;;8.34;100.00
37634;BME280;32048;49.902;22.508;2023-04-15T05:12:05;97818.03;;;8.33;100.00
37634;BME280;32048;49.902;22.508;2023-04-15T05:14:32;97817.78;;;8.38;100.00
37634;BME280;32048;49.902;22.508;2023-04-15T05:16:59;97810.00;;;8.37;100.00
37634;BME280;32048;49.902;22.508;2023-04-15T05:19:26;97808.03;;;8.40;100.00
37634;BME280;32048;49.902;22.508;2023-04-15T05:21:53;97811.28;;;8.45;100.00
37634;BME280;32048;49.902;22.508;2023-04-15T05:24:20;97803.94;;;8.50;100.00
37634;BME280;32048;49.902;22.508;2023-04-15T05:26:48;97815.88;;;8.56;100.00
37634;BME280;32048;49.902;22.508;2023-04-15T05:29:15;97810.19;;;8.64;100.00
37634;BME280;32048;49.902;22.508;2023-04-15T05:31:42;97810.84;;;8.67;100.00
37634;BME280;32048;49.902;22.508;2023-04-15T05:34:09;97821.09;;;8.72;100.00
37634;BME280;32048;49.902;22.508;2023-04-15T05:36:38;97811.59;;;8.69;100.00
37634;BME280;32048;49.902;22.508;2023-04-15T05:39:05;97827.66;;;8.65;100.00
37634;BME280;32048;49.902;22.508;2023-04-15T05:41:32;97814.59;;;8.63;100.00
37634;BME280;32048;49.902;22.508;2023-04-15T05:44:00;97814.50;;;8.65;100.00
37634;BME280;32048;49.902;22.508;2023-04-15T05:46:27;97816.00;;;8.69;100.00
37634;BME280;32048;49.902;22.508;2023-04-15T05:48:54;97813.94;;;8.74;100.00
37634;BME280;32048;49.902;22.508;2023-04-15T05:51:22;97818.19;;;8.77;100.00
37634;BME280;32048;49.902;22.508;2023-04-15T05:53:49;97825.81;;;8.81;100.00
37634;BME280;32048;49.902;22.508;2023-04-15T05:56:16;97821.97;;;8.87;100.00
37634;BME280;32048;49.902;22.508;2023-04-15T05:58:43;97828.75;;;8.91;100.00
37634;BME280;32048;49.902;22.508;2023-04-15T06:01:10;97833.34;;;8.87;100.00
37634;BME280;32048;49.902;22.508;2023-04-15T06:03:38;97835.59;;;8.79;100.00
37634;BME280;32048;49.902;22.508;2023-04-15T06:06:05;97827.88;;;8.76;100.00
37634;BME280;32048;49.902;22.508;2023-04-15T06:08:33;97817.44;;;8.74;100.00
37634;BME280;32048;49.902;22.508;2023-04-15T06:11:00;97825.44;;;8.73;100.00
37634;BME280;32048;49.902;22.508;2023-04-15T06:13:27;97821.34;;;8.67;100.00
37634;BME280;32048;49.902;22.508;2023-04-15T06:15:55;97830.13;;;8.68;100.00
37634;BME280;32048;49.902;22.508;2023-04-15T06:18:22;97836.22;;;8.68;100.00
37634;BME280;32048;49.902;22.508;2023-04-15T06:20:49;97843.78;;;8.74;100.00
37634;BME280;32048;49.902;22.508;2023-04-15T06:23:17;97837.28;;;8.80;100.00
37634;BME280;32048;49.902;22.508;2023-04-15T06:25:44;97840.31;;;8.88;100.00
37634;BME280;32048;49.902;22.508;2023-04-15T06:28:11;97841.84;;;8.92;100.00
37634;BME280;32048;49.902;22.508;2023-04-15T06:30:38;97845.88;;;8.98;100.00
37634;BME280;32048;49.902;22.508;2023-04-15T06:33:06;97838.81;;;8.99;100.00
37634;BME280;32048;49.902;22.508;2023-04-15T06:35:33;97841.16;;;9.03;100.00
37634;BME280;32048;49.902;22.508;2023-04-15T06:38:00;97851.13;;;9.12;100.00
37634;BME280;32048;49.902;22.508;2023-04-15T06:40:27;97845.22;;;9.23;100.00
37634;BME280;32048;49.902;22.508;2023-04-15T06:42:54;97851.44;;;9.36;100.00
37634;BME280;32048;49.902;22.508;2023-04-15T06:45:21;97849.66;;;9.51;100.00
37634;BME280;32048;49.902;22.508;2023-04-15T06:47:48;97853.28;;;9.63;100.00
37634;BME280;32048;49.902;22.508;2023-04-15T06:50:16;97858.44;;;9.79;100.00
37634;BME280;32048;49.902;22.508;2023-04-15T06:52:43;97863.63;;;9.81;100.00
37634;BME280;32048;49.902;22.508;2023-04-15T06:55:10;97873.22;;;9.96;100.00
37634;BME280;32048;49.902;22.508;2023-04-15T06:57:37;97873.38;;;10.07;100.00
37634;BME280;32048;49.902;22.508;2023-04-15T07:00:04;97873.00;;;10.13;100.00
37634;BME280;32048;49.902;22.508;2023-04-15T07:02:32;97877.53;;;10.11;100.00
37634;BME280;32048;49.902;22.508;2023-04-15T07:04:59;97886.34;;;10.10;100.00
37634;BME280;32048;49.902;22.508;2023-04-15T07:07:26;97883.53;;;10.13;100.00
37634;BME280;32048;49.902;22.508;2023-04-15T07:09:53;97887.84;;;10.14;100.00
37634;BME280;32048;49.902;22.508;2023-04-15T07:12:20;97889.75;;;10.12;100.00
37634;BME280;32048;49.902;22.508;2023-04-15T07:14:47;97895.56;;;10.17;100.00
37634;BME280;32048;49.902;22.508;2023-04-15T07:17:15;97896.44;;;10.18;100.00
37634;BME280;32048;49.902;22.508;2023-04-15T07:19:42;97907.00;;;10.18;100.00
37634;BME280;32048;49.902;22.508;2023-04-15T07:22:09;97915.00;;;10.16;100.00
37634;BME280;32048;49.902;22.508;2023-04-15T07:24:36;97915.00;;;10.16;100.00
37634;BME280;32048;49.902;22.508;2023-04-15T07:27:03;97924.00;;;10.27;100.00
37634;BME280;32048;49.902;22.508;2023-04-15T07:29:30;97919.31;;;10.32;100.00
37634;BME280;32048;49.902;22.508;2023-04-15T07:31:57;97919.50;;;10.29;100.00
37634;BME280;32048;49.902;22.508;2023-04-15T07:34:25;97925.16;;;10.23;100.00
37634;BME280;32048;49.902;22.508;2023-04-15T07:36:51;97925.03;;;10.24;100.00
37634;BME280;32048;49.902;22.508;2023-04-15T07:39:19;97917.53;;;10.32;100.00
37634;BME280;32048;49.902;22.508;2023-04-15T07:41:45;97919.19;;;10.48;100.00
37634;BME280;32048;49.902;22.508;2023-04-15T07:44:13;97917.56;;;10.72;100.00
37634;BME280;32048;49.902;22.508;2023-04-15T07:46:40;97920.16;;;10.99;100.00
37634;BME280;32048;49.902;22.508;2023-04-15T07:49:07;97921.25;;;11.22;100.00
37634;BME280;32048;49.902;22.508;2023-04-15T07:51:34;97920.63;;;11.44;100.00
37634;BME280;32048;49.902;22.508;2023-04-15T07:54:02;97920.09;;;11.52;100.00
37634;BME280;32048;49.902;22.508;2023-04-15T07:56:29;97920.59;;;11.70;100.00
37634;BME280;32048;49.902;22.508;2023-04-15T07:58:57;97930.66;;;11.78;100.00
37634;BME280;32048;49.902;22.508;2023-04-15T08:01:23;97930.88;;;11.88;100.00
37634;BME280;32048;49.902;22.508;2023-04-15T08:03:51;97926.94;;;12.06;100.00
37634;BME280;32048;49.902;22.508;2023-04-15T08:06:18;97923.19;;;12.58;100.00
37634;BME280;32048;49.902;22.508;2023-04-15T08:08:45;97928.59;;;13.16;100.00
37634;BME280;32048;49.902;22.508;2023-04-15T08:11:12;97935.16;;;13.35;100.00
37634;BME280;32048;49.902;22.508;2023-04-15T08:13:40;97927.84;;;13.14;100.00
37634;BME280;32048;49.902;22.508;2023-04-15T08:16:16;97921.72;;;13.25;100.00
37634;BME280;32048;49.902;22.508;2023-04-15T08:18:46;97924.94;;;13.41;100.00
37634;BME280;32048;49.902;22.508;2023-04-15T08:21:14;97920.25;;;13.67;100.00
37634;BME280;32048;49.902;22.508;2023-04-15T08:23:42;97916.22;;;14.29;99.65
37634;BME280;32048;49.902;22.508;2023-04-15T08:26:10;97919.56;;;15.39;85.53
37634;BME280;32048;49.902;22.508;2023-04-15T08:28:39;97919.47;;;16.62;60.17
37634;BME280;32048;49.902;22.508;2023-04-15T08:31:06;97913.13;;;17.61;67.01
37634;BME280;32048;49.902;22.508;2023-04-15T08:33:34;97913.84;;;18.56;57.55
37634;BME280;32048;49.902;22.508;2023-04-15T08:36:00;97910.56;;;19.34;61.25
37634;BME280;32048;49.902;22.508;2023-04-15T08:38:28;97911.69;;;20.01;57.91
37634;BME280;32048;49.902;22.508;2023-04-15T08:40:56;97918.34;;;20.74;48.88
37634;BME280;32048;49.902;22.508;2023-04-15T08:43:28;97913.00;;;20.99;53.57
37634;BME280;32048;49.902;22.508;2023-04-15T08:45:59;97907.34;;;20.08;52.92
37634;BME280;32048;49.902;22.508;2023-04-15T08:48:28;97914.19;;;19.50;46.85
37634;BME280;32048;49.902;22.508;2023-04-15T08:50:55;97915.97;;;18.98;51.77
37634;BME280;32048;49.902;22.508;2023-04-15T08:53:23;97904.78;;;18.21;46.44
37634;BME280;32048;49.902;22.508;2023-04-15T08:55:51;97921.34;;;17.30;54.12
37634;BME280;32048;49.902;22.508;2023-04-15T08:58:18;97912.44;;;16.52;50.37
37634;BME280;32048;49.902;22.508;2023-04-15T09:00:46;97916.56;;;16.15;52.91
37634;BME280;32048;49.902;22.508;2023-04-15T09:03:15;97920.81;;;15.87;63.94
37634;BME280;32048;49.902;22.508;2023-04-15T09:05:43;97911.19;;;15.23;78.97
37634;BME280;32048;49.902;22.508;2023-04-15T09:08:11;97913.78;;;15.13;72.86
37634;BME280;32048;49.902;22.508;2023-04-15T09:10:38;97914.53;;;14.83;85.32
37634;BME280;32048;49.902;22.508;2023-04-15T09:13:05;97923.56;;;14.37;83.40
37634;BME280;32048;49.902;22.508;2023-04-15T09:15:34;97915.53;;;14.05;87.94
37634;BME280;32048;49.902;22.508;2023-04-15T09:18:05;97926.53;;;13.66;96.85
37634;BME280;32048;49.902;22.508;2023-04-15T09:20:38;97926.22;;;13.36;93.17
37634;BME280;32048;49.902;22.508;2023-04-15T09:23:13;97932.66;;;13.20;98.22
37634;BME280;32048;49.902;22.508;2023-04-15T09:25:41;97932.06;;;13.17;98.87
37634;BME280;32048;49.902;22.508;2023-04-15T09:28:08;97939.44;;;13.24;93.56
37634;BME280;32048;49.902;22.508;2023-04-15T09:30:36;97939.56;;;13.23;96.82
37634;BME280;32048;49.902;22.508;2023-04-15T09:33:03;97936.16;;;13.09;98.78
37634;BME280;32048;49.902;22.508;2023-04-15T09:35:34;97937.66;;;12.89;98.40
37634;BME280;32048;49.902;22.508;2023-04-15T09:38:09;97935.72;;;12.92;97.59
37634;BME280;32048;49.902;22.508;2023-04-15T09:40:37;97923.31;;;12.92;100.00
37634;BME280;32048;49.902;22.508;2023-04-15T09:43:06;97931.06;;;13.06;100.00
37634;BME280;32048;49.902;22.508;2023-04-15T09:45:35;97922.69;;;13.24;100.00
37634;BME280;32048;49.902;22.508;2023-04-15T09:48:29;97921.69;;;13.60;94.09
37634;BME280;32048;49.902;22.508;2023-04-15T09:50:57;97917.09;;;13.96;82.01
37634;BME280;32048;49.902;22.508;2023-04-15T09:53:25;97924.44;;;14.26;87.57
37634;BME280;32048;49.902;22.508;2023-04-15T09:55:54;97922.00;;;14.89;87.02
37634;BME280;32048;49.902;22.508;2023-04-15T09:58:23;97917.00;;;15.59;76.12
37634;BME280;32048;49.902;22.508;2023-04-15T10:00:52;97918.22;;;16.07;73.33
37634;BME280;32048;49.902;22.508;2023-04-15T10:03:21;97920.81;;;16.28;70.73
37634;BME280;32048;49.902;22.508;2023-04-15T10:05:51;97913.00;;;16.46;67.28
37634;BME280;32048;49.902;22.508;2023-04-15T10:08:20;97918.00;;;16.29;68.35
37634;BME280;32048;49.902;22.508;2023-04-15T10:10:48;97913.44;;;16.00;67.98
37634;BME280;32048;49.902;22.508;2023-04-15T10:13:20;97912.03;;;15.96;69.34
37634;BME280;32048;49.902;22.508;2023-04-15T10:16:01;97917.47;;;15.85;65.80
37634;BME280;32048;49.902;22.508;2023-04-15T10:18:34;97933.28;;;16.27;68.95
37634;BME280;32048;49.902;22.508;2023-04-15T10:21:01;97915.75;;;16.85;61.96
37634;BME280;32048;49.902;22.508;2023-04-15T10:23:28;97900.81;;;17.40;62.13
37634;BME280;32048;49.902;22.508;2023-04-15T10:25:56;97901.34;;;18.01;57.67
37634;BME280;32048;49.902;22.508;2023-04-15T10:28:25;97904.81;;;18.11;54.11
37634;BME280;32048;49.902;22.508;2023-04-15T10:30:52;97896.47;;;17.86;54.53
37634;BME280;32048;49.902;22.508;2023-04-15T10:33:21;97906.72;;;17.34;57.34
37634;BME280;32048;49.902;22.508;2023-04-15T10:35:49;97900.16;;;16.90;59.08
37634;BME280;32048;49.902;22.508;2023-04-15T10:38:41;97891.16;;;16.61;59.58
37634;BME280;32048;49.902;22.508;2023-04-15T10:41:24;97894.22;;;16.47;60.61
37634;BME280;32048;49.902;22.508;2023-04-15T10:43:54;97891.13;;;16.32;62.12
37634;BME280;32048;49.902;22.508;2023-04-15T10:46:26;97885.22;;;16.29;61.68
37634;BME280;32048;49.902;22.508;2023-04-15T10:51:45;97882.66;;;17.54;59.24
37634;BME280;32048;49.902;22.508;2023-04-15T10:54:29;97887.25;;;18.54;54.00
37634;BME280;32048;49.902;22.508;2023-04-15T10:59:30;97882.19;;;20.01;48.49
37634;BME280;32048;49.902;22.508;2023-04-15T11:02:01;97884.28;;;19.81;44.70
37634;BME280;32048;49.902;22.508;2023-04-15T11:12:40;97907.13;;;16.52;54.04
37634;BME280;32048;49.902;22.508;2023-04-15T11:17:57;97909.31;;;15.56;60.58
37634;BME280;32048;49.902;22.508;2023-04-15T11:20:25;97916.56;;;15.33;66.08
37634;BME280;32048;49.902;22.508;2023-04-15T11:22:53;97922.06;;;14.99;69.80
37634;BME280;32048;49.902;22.508;2023-04-15T11:25:41;97916.97;;;14.20;72.48
37634;BME280;32048;49.902;22.508;2023-04-15T11:28:10;97919.41;;;13.67;78.09
37634;BME280;32048;49.902;22.508;2023-04-15T11:30:39;97921.56;;;13.39;81.82
37634;BME280;32048;49.902;22.508;2023-04-15T11:33:08;97928.81;;;12.89;80.32
37634;BME280;32048;49.902;22.508;2023-04-15T11:35:36;97928.22;;;12.61;84.13
37634;BME280;32048;49.902;22.508;2023-04-15T11:38:04;97943.69;;;12.31;85.87
37634;BME280;32048;49.902;22.508;2023-04-15T11:40:32;97950.47;;;11.98;89.55
37634;BME280;32048;49.902;22.508;2023-04-15T11:45:37;97970.97;;;11.56;95.65
37634;BME280;32048;49.902;22.508;2023-04-15T11:48:13;97981.97;;;11.37;95.48
37634;BME280;32048;49.902;22.508;2023-04-15T11:50:40;97964.34;;;10.97;100.00
37634;BME280;32048;49.902;22.508;2023-04-15T11:53:11;97968.50;;;10.74;100.00
37634;BME280;32048;49.902;22.508;2023-04-15T11:55:50;97958.09;;;10.71;100.00
37634;BME280;32048;49.902;22.508;2023-04-15T11:58:23;97956.94;;;10.90;100.00
37634;BME280;32048;49.902;22.508;2023-04-15T12:00:57;97962.53;;;10.98;100.00
37634;BME280;32048;49.902;22.508;2023-04-15T12:03:26;97963.88;;;10.91;100.00
37634;BME280;32048;49.902;22.508;2023-04-15T12:06:19;97955.69;;;10.68;100.00
37634;BME280;32048;49.902;22.508;2023-04-15T12:11:48;97943.13;;;10.72;100.00
37634;BME280;32048;49.902;22.508;2023-04-15T12:14:32;97945.88;;;10.70;100.00
37634;BME280;32048;49.902;22.508;2023-04-15T12:17:03;97956.72;;;10.93;100.00
37634;BME280;32048;49.902;22.508;2023-04-15T12:22:07;97962.06;;;11.31;100.00
37634;BME280;32048;49.902;22.508;2023-04-15T12:24:35;97972.41;;;11.34;100.00
37634;BME280;32048;49.902;22.508;2023-04-15T12:27:04;97968.97;;;11.59;100.00
37634;BME280;32048;49.902;22.508;2023-04-15T12:29:32;97978.50;;;11.62;100.00
37634;BME280;32048;49.902;22.508;2023-04-15T12:32:11;97989.78;;;11.51;100.00
37634;BME280;32048;49.902;22.508;2023-04-15T12:34:42;97976.56;;;11.77;100.00
37634;BME280;32048;49.902;22.508;2023-04-15T12:37:11;97984.84;;;11.98;100.00
37634;BME280;32048;49.902;22.508;2023-04-15T12:39:42;97980.50;;;12.10;100.00
37634;BME280;32048;49.902;22.508;2023-04-15T12:42:09;97978.59;;;12.12;100.00
37634;BME280;32048;49.902;22.508;2023-04-15T12:44:38;97966.84;;;11.77;100.00
37634;BME280;32048;49.902;22.508;2023-04-15T12:47:06;97958.69;;;11.68;100.00
37634;BME280;32048;49.902;22.508;2023-04-15T12:49:33;97957.31;;;11.75;100.00
37634;BME280;32048;49.902;22.508;2023-04-15T12:52:01;97975.13;;;11.98;100.00
37634;BME280;32048;49.902;22.508;2023-04-15T12:54:29;97962.09;;;11.82;100.00
37634;BME280;32048;49.902;22.508;2023-04-15T12:56:58;97960.91;;;11.74;100.00
37634;BME280;32048;49.902;22.508;2023-04-15T12:59:25;97986.38;;;11.36;100.00
37634;BME280;32048;49.902;22.508;2023-04-15T13:01:52;97972.63;;;10.78;100.00
37634;BME280;32048;49.902;22.508;2023-04-15T13:04:20;97970.47;;;10.44;100.00
37634;BME280;32048;49.902;22.508;2023-04-15T13:06:48;97963.22;;;10.47;100.00
37634;BME280;32048;49.902;22.508;2023-04-15T13:09:16;97982.59;;;10.60;100.00
37634;BME280;32048;49.902;22.508;2023-04-15T13:11:44;97994.09;;;10.59;100.00
37634;BME280;32048;49.902;22.508;2023-04-15T13:14:11;97985.97;;;10.63;100.00
37634;BME280;32048;49.902;22.508;2023-04-15T13:16:39;97996.28;;;10.53;100.00
37634;BME280;32048;49.902;22.508;2023-04-15T13:19:07;98013.16;;;10.50;100.00
37634;BME280;32048;49.902;22.508;2023-04-15T13:21:34;98027.31;;;10.49;100.00